createdAt,value
2018-07-14T00:01:54.640Z,21.00
2018-07-14T00:04:58.460Z,19.20
2018-07-14T00:08:01.999Z,18.47
2018-07-14T00:11:05.709Z,20.90
2018-07-14T00:14:09.355Z,21.57
2018-07-14T00:17:13.115Z,19.83
2018-07-14T00:20:16.811Z,20.97
2018-07-14T00:23:20.510Z,20.03
2018-07-14T00:26:24.205Z,25.73
2018-07-14T00:29:27.804Z,26.40
2018-07-14T00:32:31.423Z,19.13
2018-07-14T00:35:35.059Z,22.00
2018-07-14T00:38:38.615Z,24.40
2018-07-14T00:41:42.216Z,22.27
2018-07-14T00:44:45.848Z,23.67
2018-07-14T00:47:49.525Z,22.87
2018-07-14T00:50:53.261Z,22.33
2018-07-14T00:53:57.034Z,24.23
2018-07-14T00:57:00.833Z,23.03
2018-07-14T01:00:04.945Z,21.90
2018-07-14T01:03:08.491Z,20.63
2018-07-14T01:06:12.015Z,19.37
2018-07-14T01:09:15.740Z,22.00
2018-07-14T01:12:19.300Z,20.37
2018-07-14T01:15:22.956Z,23.03
2018-07-14T01:18:26.546Z,22.30
2018-07-14T01:21:30.222Z,17.50
2018-07-14T01:24:33.947Z,23.40
2018-07-14T01:27:37.531Z,25.07
2018-07-14T01:30:41.202Z,22.97
2018-07-14T01:33:44.852Z,30.33
2018-07-14T01:36:48.560Z,21.23
2018-07-14T01:39:52.156Z,27.33
2018-07-14T01:42:55.867Z,25.10
2018-07-14T01:45:59.441Z,20.07
2018-07-14T01:49:03.118Z,28.93
2018-07-14T01:52:06.778Z,24.37
2018-07-14T01:55:10.600Z,23.00
2018-07-14T01:58:14.196Z,23.03
2018-07-14T02:01:17.831Z,25.70
2018-07-14T02:04:21.384Z,28.70
2018-07-14T02:10:29.456Z,24.27
2018-07-14T02:13:33.024Z,24.87
2018-07-14T02:16:36.636Z,25.17
2018-07-14T02:19:40.191Z,28.87
2018-07-14T02:22:43.885Z,26.80
2018-07-14T02:25:47.546Z,28.87
2018-07-14T02:28:51.307Z,29.60
2018-07-14T02:31:54.892Z,27.90
2018-07-14T02:34:58.551Z,24.83
2018-07-14T02:38:02.113Z,30.53
2018-07-14T02:41:05.713Z,28.67
2018-07-14T02:44:09.411Z,30.40
2018-07-14T02:47:13.025Z,28.37
2018-07-14T02:50:16.790Z,27.60
2018-07-14T02:53:20.512Z,27.07
2018-07-14T02:56:24.071Z,23.90
2018-07-14T02:59:27.697Z,29.80
2018-07-14T03:02:31.332Z,29.07
2018-07-14T03:05:34.948Z,28.80
2018-07-14T03:08:38.614Z,26.70
2018-07-14T03:11:42.237Z,25.53
2018-07-14T03:14:45.948Z,23.67
2018-07-14T03:17:49.677Z,31.40
2018-07-14T03:20:53.252Z,27.60
2018-07-14T03:23:56.948Z,25.90
2018-07-14T03:27:00.622Z,25.57
2018-07-14T03:30:04.314Z,25.67
2018-07-14T03:33:08.122Z,23.20
2018-07-14T03:36:11.688Z,23.47
2018-07-14T03:39:15.256Z,27.70
2018-07-14T03:42:19.072Z,29.33
2018-07-14T03:45:22.681Z,27.47
2018-07-14T03:48:26.324Z,23.03
2018-07-14T03:51:29.987Z,24.40
2018-07-14T03:54:33.537Z,26.17
2018-07-14T03:57:37.216Z,22.90
2018-07-14T04:00:40.767Z,24.23
2018-07-14T04:03:44.464Z,26.30
2018-07-14T04:06:48.073Z,20.30
2018-07-14T04:09:51.633Z,23.37
2018-07-14T04:12:55.301Z,26.87
2018-07-14T04:15:59.047Z,22.60
2018-07-14T04:19:02.655Z,25.47
2018-07-14T04:22:06.332Z,22.33
2018-07-14T04:25:10.101Z,22.30
2018-07-14T04:28:13.723Z,22.00
2018-07-14T04:31:17.489Z,20.50
2018-07-14T04:34:21.048Z,22.53
2018-07-14T04:37:24.618Z,22.37
2018-07-14T04:40:28.224Z,19.27
2018-07-14T04:43:31.771Z,20.47
2018-07-14T04:46:35.413Z,17.30
2018-07-14T04:49:39.148Z,19.77
2018-07-14T04:52:42.758Z,20.10
2018-07-14T04:55:46.459Z,19.00
2018-07-14T04:58:50.581Z,21.63
2018-07-14T05:01:54.299Z,16.60
2018-07-14T05:04:58.009Z,20.00
2018-07-14T05:08:01.513Z,15.97
2018-07-14T05:11:05.235Z,16.23
2018-07-14T05:14:08.869Z,16.43
2018-07-14T05:17:12.524Z,16.73
2018-07-14T05:20:16.203Z,16.13
2018-07-14T05:23:20.055Z,14.67
2018-07-14T05:26:23.672Z,14.37
2018-07-14T05:29:27.299Z,17.23
2018-07-14T05:32:30.873Z,21.03
2018-07-14T05:35:34.975Z,13.70
2018-07-14T05:38:38.623Z,12.33
2018-07-14T05:41:42.227Z,12.43
2018-07-14T05:44:45.813Z,12.13
2018-07-14T05:47:49.429Z,13.20
2018-07-14T05:50:53.042Z,13.40
2018-07-14T05:53:56.614Z,13.30
2018-07-14T05:57:00.258Z,13.73
2018-07-14T06:00:04.183Z,12.40
2018-07-14T06:03:07.936Z,11.60
2018-07-14T06:06:11.731Z,9.93
2018-07-14T06:09:15.283Z,9.83
2018-07-14T06:12:18.939Z,10.73
2018-07-14T06:15:22.648Z,9.30
2018-07-14T06:18:26.303Z,10.90
2018-07-14T06:21:29.919Z,11.40
2018-07-14T06:24:33.712Z,8.70
2018-07-14T06:27:37.450Z,8.50
2018-07-14T06:30:40.965Z,8.47
2018-07-14T06:33:44.643Z,8.47
2018-07-14T06:36:48.224Z,10.00
2018-07-14T06:39:51.808Z,9.53
2018-07-14T06:42:55.469Z,9.53
2018-07-14T06:45:59.102Z,12.40
2018-07-14T06:49:02.694Z,8.80
2018-07-14T06:52:06.619Z,9.27
2018-07-14T06:55:10.184Z,7.00
2018-07-14T06:58:13.794Z,11.53
2018-07-14T07:01:17.410Z,7.70
2018-07-14T07:04:21.109Z,8.20
2018-07-14T07:07:24.687Z,7.53
2018-07-14T07:10:28.525Z,10.33
2018-07-14T07:13:32.228Z,8.03
2018-07-14T07:16:35.942Z,7.93
2018-07-14T07:19:39.588Z,7.70
2018-07-14T07:22:43.239Z,7.47
2018-07-14T07:25:46.931Z,6.83
2018-07-14T07:28:50.552Z,11.17
2018-07-14T07:31:54.126Z,17.43
2018-07-14T07:34:57.859Z,11.00
2018-07-14T07:38:01.507Z,12.07
2018-07-14T07:41:05.148Z,13.03
2018-07-14T07:44:08.939Z,13.83
2018-07-14T07:47:12.689Z,10.20
2018-07-14T07:50:16.375Z,11.03
2018-07-14T07:53:19.965Z,18.17
2018-07-14T07:56:23.568Z,17.77
2018-07-14T07:59:27.132Z,10.53
2018-07-14T08:02:30.783Z,10.60
2018-07-14T08:05:34.358Z,9.87
2018-07-14T08:08:37.959Z,11.40
2018-07-14T08:11:41.630Z,8.63
2018-07-14T08:14:45.264Z,13.07
2018-07-14T08:17:48.907Z,10.00
2018-07-14T08:20:52.489Z,10.67
2018-07-14T08:23:56.209Z,9.10
2018-07-14T08:26:59.838Z,9.40
2018-07-14T08:30:03.774Z,12.43
2018-07-14T08:33:07.493Z,14.60
2018-07-14T08:36:11.248Z,8.80
2018-07-14T08:39:15.058Z,9.43
2018-07-14T08:42:18.693Z,7.73
2018-07-14T08:45:22.316Z,9.73
2018-07-14T08:48:25.994Z,10.40
2018-07-14T08:51:29.731Z,6.90
2018-07-14T08:54:33.443Z,8.83
2018-07-14T08:57:37.037Z,8.83
2018-07-14T09:00:40.821Z,11.57
2018-07-14T09:03:44.531Z,7.70
2018-07-14T09:06:48.118Z,8.33
2018-07-14T09:09:51.919Z,13.17
2018-07-14T09:12:55.718Z,7.13
2018-07-14T09:15:59.394Z,7.40
2018-07-14T09:19:03.032Z,11.03
2018-07-14T09:22:06.863Z,12.00
2018-07-14T09:25:10.633Z,10.60
2018-07-14T09:28:14.526Z,8.70
2018-07-14T09:31:18.119Z,13.60
2018-07-14T09:34:21.795Z,14.13
2018-07-14T09:37:25.504Z,13.17
2018-07-14T09:40:29.196Z,8.83
2018-07-14T09:43:32.749Z,11.50
2018-07-14T09:46:36.417Z,11.27
2018-07-14T09:49:40.070Z,11.63
2018-07-14T09:52:43.741Z,12.60
2018-07-14T09:55:47.412Z,10.90
2018-07-14T09:58:51.101Z,11.50
2018-07-14T10:01:54.742Z,9.93
2018-07-14T10:04:58.424Z,11.53
2018-07-14T10:08:02.162Z,11.97
2018-07-14T10:11:05.839Z,11.47
2018-07-14T10:14:09.661Z,12.70
2018-07-14T10:17:13.274Z,13.07
2018-07-14T10:20:16.998Z,11.80
2018-07-14T10:23:20.957Z,11.63
2018-07-14T10:26:24.548Z,10.97
2018-07-14T10:29:28.231Z,13.43
2018-07-14T10:32:31.879Z,12.17
2018-07-14T10:35:35.530Z,12.00
2018-07-14T10:38:39.184Z,12.07
2018-07-14T10:41:42.755Z,15.47
2018-07-14T10:44:46.487Z,15.80
2018-07-14T10:47:50.158Z,15.77
2018-07-14T10:50:53.773Z,18.43
2018-07-14T10:53:57.746Z,17.73
2018-07-14T10:57:01.437Z,16.90
2018-07-14T11:00:05.121Z,16.03
2018-07-14T11:03:08.875Z,16.07
2018-07-14T11:06:12.696Z,15.60
2018-07-14T11:09:16.261Z,15.53
2018-07-14T11:12:20.081Z,16.97
2018-07-14T11:15:23.690Z,17.03
2018-07-14T11:18:27.306Z,15.43
2018-07-14T11:21:30.950Z,13.30
2018-07-14T11:24:34.877Z,14.70
2018-07-14T11:27:38.829Z,16.37
2018-07-14T11:30:42.676Z,15.90
2018-07-14T11:33:46.352Z,16.43
2018-07-14T11:36:50.200Z,16.37
2018-07-14T11:39:53.890Z,14.00
2018-07-14T11:42:57.612Z,14.37
2018-07-14T11:46:01.373Z,14.10
2018-07-14T11:49:05.097Z,15.63
2018-07-14T11:52:08.852Z,14.80
2018-07-14T11:55:12.542Z,15.17
2018-07-14T11:58:16.299Z,14.33
2018-07-14T12:01:19.992Z,19.40
2018-07-14T12:04:23.702Z,17.60
2018-07-14T12:07:27.420Z,15.43
2018-07-14T12:10:31.144Z,16.30
2018-07-14T12:13:34.833Z,17.07
2018-07-14T12:16:38.620Z,19.30
2018-07-14T12:19:42.351Z,13.67
2018-07-14T12:22:45.957Z,12.30
2018-07-14T12:25:49.734Z,13.40
2018-07-14T12:28:59.956Z,13.93
2018-07-14T12:32:03.712Z,13.50
2018-07-14T12:35:07.688Z,12.60
2018-07-14T12:38:11.293Z,19.33
2018-07-14T12:41:15.151Z,12.10
2018-07-14T12:44:18.786Z,12.13
2018-07-14T12:47:22.587Z,12.60
2018-07-14T12:50:26.299Z,11.43
2018-07-14T12:53:29.988Z,12.20
2018-07-14T12:56:33.692Z,10.97
2018-07-14T12:59:37.324Z,12.30
2018-07-14T13:02:41.044Z,12.03
2018-07-14T13:05:44.742Z,13.50
2018-07-14T13:08:48.486Z,13.17
2018-07-14T13:11:52.319Z,11.03
2018-07-14T13:14:55.952Z,13.10
2018-07-14T13:17:59.572Z,12.27
2018-07-14T13:21:03.229Z,12.67
2018-07-14T13:24:07.098Z,9.80
2018-07-14T13:27:10.753Z,22.37
2018-07-14T13:30:14.477Z,13.93
2018-07-14T13:33:18.070Z,13.67
2018-07-14T13:36:21.742Z,10.80
2018-07-14T13:39:25.387Z,13.77
2018-07-14T13:42:29.081Z,13.37
2018-07-14T13:45:32.682Z,10.37
2018-07-14T13:48:36.513Z,12.23
2018-07-14T13:51:40.332Z,10.47
2018-07-14T13:54:44.020Z,12.03
2018-07-14T13:57:47.683Z,12.77
2018-07-14T14:00:51.370Z,14.23
2018-07-14T14:03:55.150Z,12.20
2018-07-14T14:06:58.743Z,10.33
2018-07-14T14:10:02.617Z,12.20
2018-07-14T14:13:06.188Z,9.87
2018-07-14T14:16:10.086Z,15.43
2018-07-14T14:19:13.704Z,10.83
2018-07-14T14:22:17.809Z,10.57
2018-07-14T14:25:21.599Z,8.70
2018-07-14T14:28:25.169Z,8.47
2018-07-14T14:31:28.818Z,10.90
2018-07-14T14:34:32.462Z,15.40
2018-07-14T14:37:36.099Z,8.27
2018-07-14T14:40:39.653Z,9.73
2018-07-14T14:43:43.257Z,10.63
2018-07-14T14:46:46.930Z,8.27
2018-07-14T14:49:50.664Z,8.00
2018-07-14T14:52:54.333Z,9.10
2018-07-14T14:55:58.001Z,8.53
2018-07-14T14:59:01.682Z,8.10
2018-07-14T15:02:05.413Z,7.90
2018-07-14T15:05:09.068Z,6.10
2018-07-14T15:08:12.688Z,7.33
2018-07-14T15:11:16.354Z,8.80
2018-07-14T15:14:20.039Z,6.73
2018-07-14T15:17:23.949Z,5.63
2018-07-14T15:20:27.598Z,6.63
2018-07-14T15:23:31.421Z,6.90
2018-07-14T15:26:35.207Z,6.80
2018-07-14T15:29:38.801Z,5.80
2018-07-14T15:32:42.522Z,5.83
2018-07-14T15:35:46.458Z,5.77
2018-07-14T15:38:50.178Z,6.83
2018-07-14T15:41:53.866Z,5.53
2018-07-14T15:44:57.672Z,6.93
2018-07-14T15:48:01.303Z,6.07
2018-07-14T15:51:04.977Z,4.80
2018-07-14T15:54:08.664Z,5.70
2018-07-14T15:57:12.345Z,5.27
2018-07-14T16:00:16.077Z,8.80
2018-07-14T16:03:19.873Z,5.30
2018-07-14T16:06:23.651Z,5.97
2018-07-14T16:09:27.257Z,5.10
2018-07-14T16:12:30.947Z,5.63
2018-07-14T16:15:34.580Z,4.90
2018-07-14T16:18:38.192Z,4.57
2018-07-14T16:21:41.829Z,4.93
2018-07-14T16:24:45.541Z,5.60
2018-07-14T16:27:52.125Z,4.90
2018-07-14T16:30:55.788Z,5.87
2018-07-14T16:33:59.461Z,5.50
2018-07-14T16:37:03.350Z,7.17
2018-07-14T16:40:06.934Z,4.90
2018-07-14T16:43:10.678Z,6.00
2018-07-14T16:46:14.410Z,13.13
2018-07-14T16:49:18.088Z,7.23
2018-07-14T16:52:21.830Z,5.07
2018-07-14T16:55:25.486Z,7.23
2018-07-14T16:58:29.164Z,5.37
2018-07-14T17:01:32.854Z,6.63
2018-07-14T17:04:36.552Z,8.30
2018-07-14T17:07:40.372Z,5.90
2018-07-14T17:10:44.019Z,5.03
2018-07-14T17:13:47.804Z,5.73
2018-07-14T17:16:51.553Z,4.70
2018-07-14T17:19:55.296Z,5.70
2018-07-14T17:22:59.479Z,9.03
2018-07-14T17:26:03.624Z,18.90
2018-07-14T17:29:07.281Z,5.80
2018-07-14T17:32:10.901Z,5.40
2018-07-14T17:35:14.757Z,6.10
2018-07-14T17:38:18.404Z,5.90
2018-07-14T17:41:22.164Z,6.00
2018-07-14T17:44:25.860Z,6.73
2018-07-14T17:47:29.500Z,4.47
2018-07-14T17:50:33.210Z,5.20
2018-07-14T17:53:36.934Z,5.07
2018-07-14T17:56:40.553Z,5.00
2018-07-14T17:59:44.437Z,5.07
2018-07-14T18:02:48.050Z,4.87
2018-07-14T18:05:51.746Z,5.40
2018-07-14T18:08:55.336Z,4.90
2018-07-14T18:11:59.061Z,4.40
2018-07-14T18:15:02.811Z,6.73
2018-07-14T18:18:06.677Z,5.00
2018-07-14T18:21:10.451Z,4.70
2018-07-14T18:24:14.225Z,4.60
2018-07-14T18:27:17.740Z,11.40
2018-07-14T18:30:21.426Z,5.40
2018-07-14T18:33:25.201Z,8.40
2018-07-14T18:36:28.907Z,6.13
2018-07-14T18:39:32.646Z,6.00
2018-07-14T18:42:36.271Z,5.07
2018-07-14T18:45:40.011Z,6.10
2018-07-14T18:48:43.801Z,8.20
2018-07-14T18:51:47.519Z,5.83
2018-07-14T18:54:51.131Z,10.63
2018-07-14T18:57:54.870Z,10.83
2018-07-14T19:00:58.489Z,7.00
2018-07-14T19:04:02.092Z,5.70
2018-07-14T19:07:05.997Z,10.33
2018-07-14T19:10:09.746Z,5.33
2018-07-14T19:13:13.496Z,6.80
2018-07-14T19:16:17.276Z,6.40
2018-07-14T19:19:20.920Z,6.90
2018-07-14T19:22:24.579Z,6.60
2018-07-14T19:25:28.471Z,5.80
2018-07-14T19:28:32.077Z,5.30
2018-07-14T19:31:35.804Z,7.30
2018-07-14T19:34:39.486Z,5.93
2018-07-14T19:37:43.696Z,6.13
2018-07-14T19:40:47.355Z,9.03
2018-07-14T19:43:51.238Z,6.90
2018-07-14T19:46:55.114Z,9.53
2018-07-14T19:49:58.707Z,6.57
2018-07-14T19:53:02.486Z,5.73
2018-07-14T19:56:06.196Z,6.70
2018-07-14T19:59:09.797Z,5.53
2018-07-14T20:02:13.550Z,5.90
2018-07-14T20:05:17.146Z,4.77
2018-07-14T20:08:20.925Z,5.10
2018-07-14T20:11:24.602Z,5.30
2018-07-14T20:14:28.258Z,7.10
2018-07-14T20:17:31.902Z,5.20
2018-07-14T20:20:35.722Z,5.37
2018-07-14T20:23:39.616Z,7.27
2018-07-14T20:26:43.312Z,9.60
2018-07-14T20:29:47.057Z,7.30
2018-07-14T20:32:50.742Z,6.43
2018-07-14T20:35:54.439Z,6.20
2018-07-14T20:38:58.164Z,5.30
2018-07-14T20:42:01.913Z,7.60
2018-07-14T20:45:05.588Z,7.20
2018-07-14T20:48:09.295Z,6.53
2018-07-14T20:51:12.976Z,8.03
2018-07-14T20:54:16.640Z,4.80
2018-07-14T20:57:20.237Z,7.90
2018-07-14T21:00:24.048Z,5.93
2018-07-14T21:03:27.792Z,5.97
2018-07-14T21:06:31.457Z,7.23
2018-07-14T21:09:35.210Z,10.00
2018-07-14T21:12:39.057Z,6.17
2018-07-14T21:15:42.792Z,5.10
2018-07-14T21:18:46.515Z,6.83
2018-07-14T21:21:50.253Z,6.83
2018-07-14T21:24:54.117Z,7.67
2018-07-14T21:27:57.856Z,12.23
2018-07-14T21:31:01.672Z,10.43
2018-07-14T21:34:05.328Z,6.40
2018-07-14T21:37:09.023Z,6.50
2018-07-14T21:40:12.678Z,7.50
2018-07-14T21:43:16.374Z,6.40
2018-07-14T21:46:19.987Z,6.50
2018-07-14T21:49:23.677Z,12.63
2018-07-14T21:52:27.302Z,6.23
2018-07-14T21:55:30.939Z,5.90
2018-07-14T21:58:34.566Z,6.10
2018-07-14T22:01:43.416Z,13.10
2018-07-14T22:04:47.037Z,6.60
2018-07-14T22:07:50.711Z,8.40
2018-07-14T22:10:54.388Z,6.67
2018-07-14T22:13:58.023Z,7.53
2018-07-14T22:17:01.657Z,6.30
2018-07-14T22:20:05.472Z,8.13
2018-07-14T22:23:09.286Z,10.03
2018-07-14T22:26:12.847Z,6.07
2018-07-14T22:29:16.524Z,5.80
2018-07-14T22:32:20.119Z,8.57
2018-07-14T22:35:23.808Z,7.37
2018-07-14T22:38:27.601Z,6.30
2018-07-14T22:41:31.218Z,7.73
2018-07-14T22:44:34.806Z,6.90
2018-07-14T22:47:38.412Z,6.60
2018-07-14T22:50:42.032Z,9.90
2018-07-14T22:53:45.760Z,6.40
2018-07-14T22:56:49.423Z,6.00
2018-07-14T22:59:53.031Z,5.80
2018-07-14T23:02:56.703Z,7.50
2018-07-14T23:06:00.518Z,7.33
2018-07-14T23:09:04.849Z,9.17
2018-07-14T23:12:08.531Z,6.93
2018-07-14T23:15:12.203Z,6.80
2018-07-14T23:18:15.962Z,6.10
2018-07-14T23:21:19.549Z,10.77
2018-07-14T23:24:23.324Z,6.23
2018-07-14T23:27:26.957Z,6.70
2018-07-14T23:30:30.608Z,7.53
2018-07-14T23:33:34.304Z,6.30
2018-07-14T23:36:37.994Z,7.13
2018-07-14T23:39:41.568Z,6.60
2018-07-14T23:42:45.227Z,6.70
2018-07-14T23:45:49.023Z,5.60
2018-07-14T23:48:52.847Z,8.30
2018-07-14T23:51:56.479Z,8.87
2018-07-14T23:55:00.060Z,5.50
2018-07-14T23:58:03.677Z,6.23
